sensor_id;sensor_type;location;lat;lon;timestamp;temperature;humidity
55064;DHT22;40963;52.168;21.296;2022-11-18T00:02:06;-0.60;99.90
55064;DHT22;40963;52.168;21.296;2022-11-18T00:04:31;-0.60;99.90
55064;DHT22;40963;52.168;21.296;2022-11-18T00:06:57;-0.60;99.90
55064;DHT22;40963;52.168;21.296;2022-11-18T00:09:23;-0.60;99.90
55064;DHT22;40963;52.168;21.296;2022-11-18T00:11:48;-0.60;99.90
55064;DHT22;40963;52.168;21.296;2022-11-18T00:14:32;-0.60;99.90
55064;DHT22;40963;52.168;21.296;2022-11-18T00:17:00;-0.60;99.90
55064;DHT22;40963;52.168;21.296;2022-11-18T00:19:38;-0.60;99.90
55064;DHT22;40963;52.168;21.296;2022-11-18T00:22:11;-0.60;99.90
55064;DHT22;40963;52.168;21.296;2022-11-18T00:24:36;-0.60;99.90
55064;DHT22;40963;52.168;21.296;2022-11-18T00:27:02;-0.60;99.90
55064;DHT22;40963;52.168;21.296;2022-11-18T00:29:28;-0.60;99.90
55064;DHT22;40963;52.168;21.296;2022-11-18T00:31:56;-0.60;99.90
55064;DHT22;40963;52.168;21.296;2022-11-18T00:34:22;-0.60;99.90
55064;DHT22;40963;52.168;21.296;2022-11-18T00:36:48;-0.60;99.90
55064;DHT22;40963;52.168;21.296;2022-11-18T00:39:16;-0.60;99.90
55064;DHT22;40963;52.168;21.296;2022-11-18T00:41:42;-0.60;99.90
55064;DHT22;40963;52.168;21.296;2022-11-18T00:44:27;-0.60;99.90
55064;DHT22;40963;52.168;21.296;2022-11-18T00:46:53;-0.60;99.90
55064;DHT22;40963;52.168;21.296;2022-11-18T00:49:19;-0.50;99.90
55064;DHT22;40963;52.168;21.296;2022-11-18T00:51:44;-0.50;99.90
55064;DHT22;40963;52.168;21.296;2022-11-18T00:54:10;-0.50;99.90
55064;DHT22;40963;52.168;21.296;2022-11-18T00:56:36;-0.50;99.90
55064;DHT22;40963;52.168;21.296;2022-11-18T00:59:02;-0.50;99.90
55064;DHT22;40963;52.168;21.296;2022-11-18T01:01:28;-0.50;99.90
55064;DHT22;40963;52.168;21.296;2022-11-18T01:03:54;-0.50;99.90
55064;DHT22;40963;52.168;21.296;2022-11-18T01:06:19;-0.50;99.90
55064;DHT22;40963;52.168;21.296;2022-11-18T01:08:45;-0.50;99.90
55064;DHT22;40963;52.168;21.296;2022-11-18T01:11:11;-0.50;99.90
55064;DHT22;40963;52.168;21.296;2022-11-18T01:13:57;-0.50;99.90
55064;DHT22;40963;52.168;21.296;2022-11-18T01:16:25;-0.50;99.90
55064;DHT22;40963;52.168;21.296;2022-11-18T01:18:52;-0.50;99.90
55064;DHT22;40963;52.168;21.296;2022-11-18T01:21:19;-0.50;99.90
55064;DHT22;40963;52.168;21.296;2022-11-18T01:23:45;-0.50;99.90
55064;DHT22;40963;52.168;21.296;2022-11-18T01:26:12;-0.50;99.90
55064;DHT22;40963;52.168;21.296;2022-11-18T01:28:39;-0.50;99.90
55064;DHT22;40963;52.168;21.296;2022-11-18T01:31:08;-0.60;99.90
55064;DHT22;40963;52.168;21.296;2022-11-18T01:33:34;-0.60;99.90
55064;DHT22;40963;52.168;21.296;2022-11-18T01:36:00;-0.60;99.90
55064;DHT22;40963;52.168;21.296;2022-11-18T01:38:26;-0.60;99.90
55064;DHT22;40963;52.168;21.296;2022-11-18T01:40:56;-0.60;99.90
55064;DHT22;40963;52.168;21.296;2022-11-18T01:43:22;-0.60;99.90
55064;DHT22;40963;52.168;21.296;2022-11-18T01:45:50;-0.60;99.90
55064;DHT22;40963;52.168;21.296;2022-11-18T01:48:36;-0.50;99.90
55064;DHT22;40963;52.168;21.296;2022-11-18T01:51:07;-0.50;99.90
55064;DHT22;40963;52.168;21.296;2022-11-18T01:53:41;-0.50;99.90
55064;DHT22;40963;52.168;21.296;2022-11-18T01:56:11;-0.50;99.90
55064;DHT22;40963;52.168;21.296;2022-11-18T01:58:49;-0.50;99.90
55064;DHT22;40963;52.168;21.296;2022-11-18T02:01:16;-0.50;99.90
55064;DHT22;40963;52.168;21.296;2022-11-18T02:03:42;-0.50;99.90
55064;DHT22;40963;52.168;21.296;2022-11-18T02:06:09;-0.50;99.90
55064;DHT22;40963;52.168;21.296;2022-11-18T02:08:35;-0.50;99.90
55064;DHT22;40963;52.168;21.296;2022-11-18T02:11:07;-0.50;99.90
55064;DHT22;40963;52.168;21.296;2022-11-18T02:13:33;-0.50;99.90
55064;DHT22;40963;52.168;21.296;2022-11-18T02:16:07;-0.50;99.90
55064;DHT22;40963;52.168;21.296;2022-11-18T02:19:00;-0.50;99.90
55064;DHT22;40963;52.168;21.296;2022-11-18T02:21:38;-0.50;99.90
55064;DHT22;40963;52.168;21.296;2022-11-18T02:29:37;-0.50;99.90
55064;DHT22;40963;52.168;21.296;2022-11-18T02:32:14;-0.50;99.90
55064;DHT22;40963;52.168;21.296;2022-11-18T02:34:50;-0.40;99.90
55064;DHT22;40963;52.168;21.296;2022-11-18T02:37:46;-0.50;99.90
55064;DHT22;40963;52.168;21.296;2022-11-18T02:40:27;-0.50;99.90
55064;DHT22;40963;52.168;21.296;2022-11-18T02:43:00;-0.50;99.90
55064;DHT22;40963;52.168;21.296;2022-11-18T02:45:29;-0.50;99.90
55064;DHT22;40963;52.168;21.296;2022-11-18T02:48:00;-0.50;99.90
55064;DHT22;40963;52.168;21.296;2022-11-18T02:50:28;-0.50;99.90
55064;DHT22;40963;52.168;21.296;2022-11-18T02:52:57;-0.50;99.90
55064;DHT22;40963;52.168;21.296;2022-11-18T02:55:27;-0.50;99.90
55064;DHT22;40963;52.168;21.296;2022-11-18T02:57:55;-0.50;99.90
55064;DHT22;40963;52.168;21.296;2022-11-18T03:00:21;-0.50;99.90
55064;DHT22;40963;52.168;21.296;2022-11-18T03:02:48;-0.40;99.90
55064;DHT22;40963;52.168;21.296;2022-11-18T03:07:56;-0.50;99.90
55064;DHT22;40963;52.168;21.296;2022-11-18T03:10:29;-0.40;99.90
55064;DHT22;40963;52.168;21.296;2022-11-18T03:13:25;-0.50;99.90
55064;DHT22;40963;52.168;21.296;2022-11-18T03:16:03;-0.50;99.90
55064;DHT22;40963;52.168;21.296;2022-11-18T03:18:43;-0.50;99.90
55064;DHT22;40963;52.168;21.296;2022-11-18T03:21:29;-0.50;99.90
55064;DHT22;40963;52.168;21.296;2022-11-18T03:24:23;-0.50;99.90
55064;DHT22;40963;52.168;21.296;2022-11-18T03:26:53;-0.50;99.90
55064;DHT22;40963;52.168;21.296;2022-11-18T03:29:21;-0.50;99.90
55064;DHT22;40963;52.168;21.296;2022-11-18T03:31:55;-0.50;99.90
55064;DHT22;40963;52.168;21.296;2022-11-18T03:34:40;-0.50;99.90
55064;DHT22;40963;52.168;21.296;2022-11-18T03:37:09;-0.50;99.90
55064;DHT22;40963;52.168;21.296;2022-11-18T03:39:40;-0.50;99.90
55064;DHT22;40963;52.168;21.296;2022-11-18T03:42:14;-0.50;99.90
55064;DHT22;40963;52.168;21.296;2022-11-18T03:44:46;-0.50;99.90
55064;DHT22;40963;52.168;21.296;2022-11-18T03:47:20;-0.50;99.90
55064;DHT22;40963;52.168;21.296;2022-11-18T03:49:52;-0.60;99.90
55064;DHT22;40963;52.168;21.296;2022-11-18T03:52:23;-0.60;99.90
55064;DHT22;40963;52.168;21.296;2022-11-18T03:54:53;-0.60;99.90
55064;DHT22;40963;52.168;21.296;2022-11-18T04:00:14;-0.60;99.90
55064;DHT22;40963;52.168;21.296;2022-11-18T04:02:40;-0.60;99.90
55064;DHT22;40963;52.168;21.296;2022-11-18T04:05:08;-0.60;99.90
55064;DHT22;40963;52.168;21.296;2022-11-18T04:07:55;-0.60;99.90
55064;DHT22;40963;52.168;21.296;2022-11-18T04:10:34;-0.60;99.90
55064;DHT22;40963;52.168;21.296;2022-11-18T04:13:06;-0.60;99.90
55064;DHT22;40963;52.168;21.296;2022-11-18T04:15:36;-0.60;99.90
55064;DHT22;40963;52.168;21.296;2022-11-18T04:18:02;-0.60;99.90
55064;DHT22;40963;52.168;21.296;2022-11-18T04:20:28;-0.60;99.90
55064;DHT22;40963;52.168;21.296;2022-11-18T04:22:56;-0.60;99.90
55064;DHT22;40963;52.168;21.296;2022-11-18T04:25:21;-0.60;99.90
55064;DHT22;40963;52.168;21.296;2022-11-18T04:27:49;-0.60;99.90
55064;DHT22;40963;52.168;21.296;2022-11-18T04:30:15;-0.60;99.90
55064;DHT22;40963;52.168;21.296;2022-11-18T04:32:41;-0.70;99.90
55064;DHT22;40963;52.168;21.296;2022-11-18T04:35:06;-0.70;99.90
55064;DHT22;40963;52.168;21.296;2022-11-18T04:37:33;-0.70;99.90
55064;DHT22;40963;52.168;21.296;2022-11-18T04:39:58;-0.70;99.90
55064;DHT22;40963;52.168;21.296;2022-11-18T04:42:24;-0.80;99.90
55064;DHT22;40963;52.168;21.296;2022-11-18T04:44:50;-0.80;99.90
55064;DHT22;40963;52.168;21.296;2022-11-18T04:47:16;-0.80;99.90
55064;DHT22;40963;52.168;21.296;2022-11-18T04:49:41;-0.90;99.90
55064;DHT22;40963;52.168;21.296;2022-11-18T04:52:07;-0.90;99.90
55064;DHT22;40963;52.168;21.296;2022-11-18T04:54:32;-0.90;99.90
55064;DHT22;40963;52.168;21.296;2022-11-18T04:56:58;-0.90;99.90
55064;DHT22;40963;52.168;21.296;2022-11-18T04:59:26;-0.90;99.90
55064;DHT22;40963;52.168;21.296;2022-11-18T05:01:53;-0.90;99.90
55064;DHT22;40963;52.168;21.296;2022-11-18T05:04:21;-0.90;99.90
55064;DHT22;40963;52.168;21.296;2022-11-18T05:06:47;-0.90;99.90
55064;DHT22;40963;52.168;21.296;2022-11-18T05:09:13;-0.90;99.90
55064;DHT22;40963;52.168;21.296;2022-11-18T05:11:39;-0.90;99.90
55064;DHT22;40963;52.168;21.296;2022-11-18T05:14:27;-0.90;99.90
55064;DHT22;40963;52.168;21.296;2022-11-18T05:16:55;-1.00;99.90
55064;DHT22;40963;52.168;21.296;2022-11-18T05:19:20;-1.00;99.90
55064;DHT22;40963;52.168;21.296;2022-11-18T05:21:46;-1.00;99.90
55064;DHT22;40963;52.168;21.296;2022-11-18T05:24:12;-1.10;99.90
55064;DHT22;40963;52.168;21.296;2022-11-18T05:26:38;-1.10;99.90
55064;DHT22;40963;52.168;21.296;2022-11-18T05:29:04;-1.10;99.90
55064;DHT22;40963;52.168;21.296;2022-11-18T05:31:29;-1.10;99.90
55064;DHT22;40963;52.168;21.296;2022-11-18T05:33:55;-1.10;99.90
55064;DHT22;40963;52.168;21.296;2022-11-18T05:36:21;-1.10;99.90
55064;DHT22;40963;52.168;21.296;2022-11-18T05:38:47;-1.10;99.90
55064;DHT22;40963;52.168;21.296;2022-11-18T05:41:13;-1.20;99.90
55064;DHT22;40963;52.168;21.296;2022-11-18T05:43:58;-1.20;99.90
55064;DHT22;40963;52.168;21.296;2022-11-18T05:46:25;-1.20;99.90
55064;DHT22;40963;52.168;21.296;2022-11-18T05:48:50;-1.20;99.90
55064;DHT22;40963;52.168;21.296;2022-11-18T05:51:16;-1.10;99.90
55064;DHT22;40963;52.168;21.296;2022-11-18T05:53:42;-1.20;99.90
55064;DHT22;40963;52.168;21.296;2022-11-18T05:56:21;-1.20;99.90
55064;DHT22;40963;52.168;21.296;2022-11-18T05:58:48;-1.20;99.90
55064;DHT22;40963;52.168;21.296;2022-11-18T06:01:21;-1.20;99.90
55064;DHT22;40963;52.168;21.296;2022-11-18T06:03:47;-1.20;99.90
55064;DHT22;40963;52.168;21.296;2022-11-18T06:06:15;-1.20;99.90
55064;DHT22;40963;52.168;21.296;2022-11-18T06:09:02;-1.20;99.90
55064;DHT22;40963;52.168;21.296;2022-11-18T06:11:30;-1.20;99.90
55064;DHT22;40963;52.168;21.296;2022-11-18T06:14:04;-1.20;99.90
55064;DHT22;40963;52.168;21.296;2022-11-18T06:16:33;-1.20;99.90
55064;DHT22;40963;52.168;21.296;2022-11-18T06:19:00;-1.20;99.90
55064;DHT22;40963;52.168;21.296;2022-11-18T06:21:27;-1.20;99.90
55064;DHT22;40963;52.168;21.296;2022-11-18T06:23:53;-1.30;99.90
55064;DHT22;40963;52.168;21.296;2022-11-18T06:26:18;-1.30;99.90
55064;DHT22;40963;52.168;21.296;2022-11-18T06:28:45;-1.30;99.90
55064;DHT22;40963;52.168;21.296;2022-11-18T06:31:12;-1.40;99.90
55064;DHT22;40963;52.168;21.296;2022-11-18T06:33:37;-1.40;99.90
55064;DHT22;40963;52.168;21.296;2022-11-18T06:36:03;-1.40;99.90
55064;DHT22;40963;52.168;21.296;2022-11-18T06:38:29;-1.40;99.90
55064;DHT22;40963;52.168;21.296;2022-11-18T06:40:59;-1.40;99.90
55064;DHT22;40963;52.168;21.296;2022-11-18T06:43:24;-1.40;99.90
55064;DHT22;40963;52.168;21.296;2022-11-18T06:46:14;-1.40;99.90
55064;DHT22;40963;52.168;21.296;2022-11-18T06:49:00;-1.40;99.90
55064;DHT22;40963;52.168;21.296;2022-11-18T06:51:26;-1.40;99.90
55064;DHT22;40963;52.168;21.296;2022-11-18T06:53:52;-1.40;99.90
55064;DHT22;40963;52.168;21.296;2022-11-18T06:56:19;-1.40;99.90
55064;DHT22;40963;52.168;21.296;2022-11-18T06:58:46;-1.40;99.90
55064;DHT22;40963;52.168;21.296;2022-11-18T07:03:43;-1.40;99.90
55064;DHT22;40963;52.168;21.296;2022-11-18T07:06:09;-1.40;99.90
55064;DHT22;40963;52.168;21.296;2022-11-18T07:08:36;-1.40;99.90
55064;DHT22;40963;52.168;21.296;2022-11-18T07:11:03;-1.30;99.90
55064;DHT22;40963;52.168;21.296;2022-11-18T07:13:33;-1.30;99.90
55064;DHT22;40963;52.168;21.296;2022-11-18T07:16:06;-1.30;99.90
55064;DHT22;40963;52.168;21.296;2022-11-18T07:18:34;-1.30;99.90
55064;DHT22;40963;52.168;21.296;2022-11-18T07:21:06;-1.30;99.90
55064;DHT22;40963;52.168;21.296;2022-11-18T07:23:33;-1.30;99.90
55064;DHT22;40963;52.168;21.296;2022-11-18T07:25:59;-1.30;99.90
55064;DHT22;40963;52.168;21.296;2022-11-18T07:28:26;-1.30;99.90
55064;DHT22;40963;52.168;21.296;2022-11-18T07:30:52;-1.30;99.90
55064;DHT22;40963;52.168;21.296;2022-11-18T07:33:17;-1.30;99.90
55064;DHT22;40963;52.168;21.296;2022-11-18T07:35:43;-1.30;99.90
55064;DHT22;40963;52.168;21.296;2022-11-18T07:38:09;-1.30;99.90
55064;DHT22;40963;52.168;21.296;2022-11-18T07:40:34;-1.20;99.90
55064;DHT22;40963;52.168;21.296;2022-11-18T07:43:00;-1.20;99.90
55064;DHT22;40963;52.168;21.296;2022-11-18T07:45:26;-1.20;99.90
55064;DHT22;40963;52.168;21.296;2022-11-18T07:47:51;-1.20;99.90
55064;DHT22;40963;52.168;21.296;2022-11-18T07:50:17;-1.10;99.90
55064;DHT22;40963;52.168;21.296;2022-11-18T07:52:43;-1.10;99.90
55064;DHT22;40963;52.168;21.296;2022-11-18T07:55:09;-1.10;99.90
55064;DHT22;40963;52.168;21.296;2022-11-18T07:57:35;-1.10;99.90
55064;DHT22;40963;52.168;21.296;2022-11-18T08:00:00;-1.10;99.90
55064;DHT22;40963;52.168;21.296;2022-11-18T08:02:26;-1.10;99.90
55064;DHT22;40963;52.168;21.296;2022-11-18T08:04:52;-1.10;99.90
55064;DHT22;40963;52.168;21.296;2022-11-18T08:07:17;-1.10;99.90
55064;DHT22;40963;52.168;21.296;2022-11-18T08:09:43;-1.00;99.90
55064;DHT22;40963;52.168;21.296;2022-11-18T08:12:09;-1.10;99.90
55064;DHT22;40963;52.168;21.296;2022-11-18T08:14:34;-1.10;99.90
55064;DHT22;40963;52.168;21.296;2022-11-18T08:17:00;-1.10;99.90
55064;DHT22;40963;52.168;21.296;2022-11-18T08:19:26;-1.00;99.90
55064;DHT22;40963;52.168;21.296;2022-11-18T08:21:51;-1.10;99.90
55064;DHT22;40963;52.168;21.296;2022-11-18T08:24:17;-1.00;99.90
55064;DHT22;40963;52.168;21.296;2022-11-18T08:26:43;-1.00;99.90
55064;DHT22;40963;52.168;21.296;2022-11-18T08:29:08;-1.00;99.90
55064;DHT22;40963;52.168;21.296;2022-11-18T08:31:34;-1.00;99.90
55064;DHT22;40963;52.168;21.296;2022-11-18T08:34:02;-1.00;99.90
55064;DHT22;40963;52.168;21.296;2022-11-18T08:36:34;-1.00;99.90
55064;DHT22;40963;52.168;21.296;2022-11-18T08:39:02;-0.90;99.90
55064;DHT22;40963;52.168;21.296;2022-11-18T08:41:35;-0.90;99.90
55064;DHT22;40963;52.168;21.296;2022-11-18T08:44:01;-1.00;99.90
55064;DHT22;40963;52.168;21.296;2022-11-18T08:46:28;-1.00;99.90
55064;DHT22;40963;52.168;21.296;2022-11-18T08:48:54;-0.90;99.90
55064;DHT22;40963;52.168;21.296;2022-11-18T08:51:20;-0.90;99.90
55064;DHT22;40963;52.168;21.296;2022-11-18T08:53:46;-0.90;99.90
55064;DHT22;40963;52.168;21.296;2022-11-18T08:56:14;-0.90;99.90
55064;DHT22;40963;52.168;21.296;2022-11-18T08:58:41;-0.90;99.90
55064;DHT22;40963;52.168;21.296;2022-11-18T09:01:07;-0.90;99.90
55064;DHT22;40963;52.168;21.296;2022-11-18T09:03:33;-0.90;99.90
55064;DHT22;40963;52.168;21.296;2022-11-18T09:06:09;-0.90;99.90
55064;DHT22;40963;52.168;21.296;2022-11-18T09:08:36;-0.90;99.90
55064;DHT22;40963;52.168;21.296;2022-11-18T09:11:10;-1.00;99.90
55064;DHT22;40963;52.168;21.296;2022-11-18T09:13:36;-0.90;99.90
55064;DHT22;40963;52.168;21.296;2022-11-18T09:16:02;-0.90;99.90
55064;DHT22;40963;52.168;21.296;2022-11-18T09:18:29;-0.90;99.90
55064;DHT22;40963;52.168;21.296;2022-11-18T09:23:20;-1.00;99.90
55064;DHT22;40963;52.168;21.296;2022-11-18T09:25:46;-1.00;99.90
55064;DHT22;40963;52.168;21.296;2022-11-18T09:28:12;-1.00;99.90
55064;DHT22;40963;52.168;21.296;2022-11-18T09:30:38;-1.00;99.90
55064;DHT22;40963;52.168;21.296;2022-11-18T09:33:03;-1.00;99.90
55064;DHT22;40963;52.168;21.296;2022-11-18T09:35:31;-1.00;99.90
55064;DHT22;40963;52.168;21.296;2022-11-18T09:37:58;-1.00;99.90
55064;DHT22;40963;52.168;21.296;2022-11-18T09:40:24;-0.90;99.90
55064;DHT22;40963;52.168;21.296;2022-11-18T09:45:27;-0.90;99.90
55064;DHT22;40963;52.168;21.296;2022-11-18T09:47:57;-0.90;99.90
55064;DHT22;40963;52.168;21.296;2022-11-18T09:50:23;-0.90;99.90
55064;DHT22;40963;52.168;21.296;2022-11-18T09:55:16;-0.90;99.90
55064;DHT22;40963;52.168;21.296;2022-11-18T09:57:55;-0.90;99.90
55064;DHT22;40963;52.168;21.296;2022-11-18T10:00:30;-0.90;99.90
55064;DHT22;40963;52.168;21.296;2022-11-18T10:03:05;-0.90;99.90
55064;DHT22;40963;52.168;21.296;2022-11-18T10:08:20;-0.90;99.90
55064;DHT22;40963;52.168;21.296;2022-11-18T10:11:10;-0.90;99.90
55064;DHT22;40963;52.168;21.296;2022-11-18T10:16:21;-0.90;99.90
55064;DHT22;40963;52.168;21.296;2022-11-18T10:21:59;-0.90;99.90
55064;DHT22;40963;52.168;21.296;2022-11-18T10:24:42;-0.90;99.90
55064;DHT22;40963;52.168;21.296;2022-11-18T10:27:12;-0.90;99.90
55064;DHT22;40963;52.168;21.296;2022-11-18T10:29:38;-0.90;99.90
55064;DHT22;40963;52.168;21.296;2022-11-18T10:32:10;-0.90;99.90
55064;DHT22;40963;52.168;21.296;2022-11-18T10:37:27;-0.90;99.90
55064;DHT22;40963;52.168;21.296;2022-11-18T10:39:59;-0.80;99.90
55064;DHT22;40963;52.168;21.296;2022-11-18T10:42:44;-0.80;99.90
55064;DHT22;40963;52.168;21.296;2022-11-18T10:48:09;-0.80;99.90
55064;DHT22;40963;52.168;21.296;2022-11-18T10:50:42;-0.90;99.90
55064;DHT22;40963;52.168;21.296;2022-11-18T10:53:34;-0.80;99.90
55064;DHT22;40963;52.168;21.296;2022-11-18T10:56:03;-0.80;99.90
55064;DHT22;40963;52.168;21.296;2022-11-18T10:58:30;-0.80;99.90
55064;DHT22;40963;52.168;21.296;2022-11-18T11:01:06;-0.80;99.90
55064;DHT22;40963;52.168;21.296;2022-11-18T11:03:37;-0.80;99.90
55064;DHT22;40963;52.168;21.296;2022-11-18T11:11:29;-0.70;99.90
55064;DHT22;40963;52.168;21.296;2022-11-18T11:14:05;-0.70;99.90
55064;DHT22;40963;52.168;21.296;2022-11-18T11:16:37;-0.70;99.90
55064;DHT22;40963;52.168;21.296;2022-11-18T11:19:08;-0.70;99.90
55064;DHT22;40963;52.168;21.296;2022-11-18T11:21:35;-0.70;99.90
55064;DHT22;40963;52.168;21.296;2022-11-18T11:24:00;-0.70;99.90
55064;DHT22;40963;52.168;21.296;2022-11-18T11:37:59;-0.50;99.90
55064;DHT22;40963;52.168;21.296;2022-11-18T11:40:44;-0.50;99.90
55064;DHT22;40963;52.168;21.296;2022-11-18T11:52:33;-0.50;99.90
55064;DHT22;40963;52.168;21.296;2022-11-18T11:57:36;-0.50;99.90
55064;DHT22;40963;52.168;21.296;2022-11-18T12:00:12;-0.50;99.90
55064;DHT22;40963;52.168;21.296;2022-11-18T12:05:41;-0.50;99.90
55064;DHT22;40963;52.168;21.296;2022-11-18T12:08:18;-0.40;99.90
55064;DHT22;40963;52.168;21.296;2022-11-18T12:14:24;-0.40;99.90
55064;DHT22;40963;52.168;21.296;2022-11-18T12:17:04;-0.40;99.90
55064;DHT22;40963;52.168;21.296;2022-11-18T12:19:37;-0.30;99.90
55064;DHT22;40963;52.168;21.296;2022-11-18T12:22:03;-0.30;99.90
55064;DHT22;40963;52.168;21.296;2022-11-18T12:24:38;-0.30;99.90
55064;DHT22;40963;52.168;21.296;2022-11-18T12:29:59;-0.30;99.90
55064;DHT22;40963;52.168;21.296;2022-11-18T12:40:44;-0.10;99.90
55064;DHT22;40963;52.168;21.296;2022-11-18T12:48:51;-0.20;99.90
55064;DHT22;40963;52.168;21.296;2022-11-18T12:53:47;-0.10;99.90
55064;DHT22;40963;52.168;21.296;2022-11-18T12:58:48;-0.10;99.90
55064;DHT22;40963;52.168;21.296;2022-11-18T13:01:17;-0.10;99.90
55064;DHT22;40963;52.168;21.296;2022-11-18T13:03:43;-0.10;99.90
55064;DHT22;40963;52.168;21.296;2022-11-18T13:06:23;-0.10;99.90
55064;DHT22;40963;52.168;21.296;2022-11-18T13:08:54;-0.10;99.90
55064;DHT22;40963;52.168;21.296;2022-11-18T13:11:21;-0.10;99.90
55064;DHT22;40963;52.168;21.296;2022-11-18T13:14:11;-0.10;99.90
55064;DHT22;40963;52.168;21.296;2022-11-18T13:16:56;-0.10;99.90
55064;DHT22;40963;52.168;21.296;2022-11-18T13:19:41;-0.10;99.90
55064;DHT22;40963;52.168;21.296;2022-11-18T13:22:16;-0.10;99.90
55064;DHT22;40963;52.168;21.296;2022-11-18T13:25:00;-0.20;99.90
55064;DHT22;40963;52.168;21.296;2022-11-18T13:27:38;-0.20;99.90
55064;DHT22;40963;52.168;21.296;2022-11-18T13:30:11;-0.20;99.90
55064;DHT22;40963;52.168;21.296;2022-11-18T13:32:42;-0.20;99.90
55064;DHT22;40963;52.168;21.296;2022-11-18T13:35:20;-0.20;99.90
55064;DHT22;40963;52.168;21.296;2022-11-18T13:37:59;-0.20;99.90
55064;DHT22;40963;52.168;21.296;2022-11-18T13:40:47;-0.20;99.90
55064;DHT22;40963;52.168;21.296;2022-11-18T13:43:29;-0.20;99.90
55064;DHT22;40963;52.168;21.296;2022-11-18T13:45:57;-0.20;99.90
55064;DHT22;40963;52.168;21.296;2022-11-18T13:48:24;-0.20;99.90
55064;DHT22;40963;52.168;21.296;2022-11-18T13:50:52;-0.20;99.90
55064;DHT22;40963;52.168;21.296;2022-11-18T13:53:32;-0.20;99.90
55064;DHT22;40963;52.168;21.296;2022-11-18T13:56:07;-0.20;99.90
55064;DHT22;40963;52.168;21.296;2022-11-18T13:58:54;-0.20;99.90
55064;DHT22;40963;52.168;21.296;2022-11-18T14:01:28;-0.30;99.90
55064;DHT22;40963;52.168;21.296;2022-11-18T14:04:03;-0.30;99.90
55064;DHT22;40963;52.168;21.296;2022-11-18T14:06:34;-0.30;99.90
55064;DHT22;40963;52.168;21.296;2022-11-18T14:11:40;-0.30;99.90
55064;DHT22;40963;52.168;21.296;2022-11-18T14:14:11;-0.40;99.90
55064;DHT22;40963;52.168;21.296;2022-11-18T14:16:39;-0.40;99.90
55064;DHT22;40963;52.168;21.296;2022-11-18T14:19:06;-0.40;99.90
55064;DHT22;40963;52.168;21.296;2022-11-18T14:21:50;-0.50;99.90
55064;DHT22;40963;52.168;21.296;2022-11-18T14:24:16;-0.50;99.90
55064;DHT22;40963;52.168;21.296;2022-11-18T14:26:49;-0.50;99.90
55064;DHT22;40963;52.168;21.296;2022-11-18T14:29:16;-0.40;99.90
55064;DHT22;40963;52.168;21.296;2022-11-18T14:32:15;-0.50;99.90
55064;DHT22;40963;52.168;21.296;2022-11-18T14:34:41;-0.40;99.90
55064;DHT22;40963;52.168;21.296;2022-11-18T14:37:11;-0.40;99.90
55064;DHT22;40963;52.168;21.296;2022-11-18T14:39:37;-0.40;99.90
55064;DHT22;40963;52.168;21.296;2022-11-18T14:42:03;-0.40;99.90
55064;DHT22;40963;52.168;21.296;2022-11-18T14:44:31;-0.50;99.90
55064;DHT22;40963;52.168;21.296;2022-11-18T14:46:58;-0.40;99.90
55064;DHT22;40963;52.168;21.296;2022-11-18T14:49:25;-0.50;99.90
55064;DHT22;40963;52.168;21.296;2022-11-18T14:51:53;-0.50;99.90
55064;DHT22;40963;52.168;21.296;2022-11-18T14:54:21;-0.50;99.90
55064;DHT22;40963;52.168;21.296;2022-11-18T14:56:48;-0.50;99.90
55064;DHT22;40963;52.168;21.296;2022-11-18T14:59:16;-0.50;99.90
55064;DHT22;40963;52.168;21.296;2022-11-18T15:01:43;-0.50;99.90
55064;DHT22;40963;52.168;21.296;2022-11-18T15:04:10;-0.50;99.90
55064;DHT22;40963;52.168;21.296;2022-11-18T15:06:36;-0.50;99.90
55064;DHT22;40963;52.168;21.296;2022-11-18T15:09:04;-0.50;99.90
55064;DHT22;40963;52.168;21.296;2022-11-18T15:11:30;-0.50;99.90
55064;DHT22;40963;52.168;21.296;2022-11-18T15:13:56;-0.50;99.90
55064;DHT22;40963;52.168;21.296;2022-11-18T15:16:27;-0.50;99.90
55064;DHT22;40963;52.168;21.296;2022-11-18T15:18:55;-0.50;99.90
55064;DHT22;40963;52.168;21.296;2022-11-18T15:21:22;-0.50;99.90
55064;DHT22;40963;52.168;21.296;2022-11-18T15:23:48;-0.60;99.90
55064;DHT22;40963;52.168;21.296;2022-11-18T15:26:15;-0.60;99.90
55064;DHT22;40963;52.168;21.296;2022-11-18T15:28:42;-0.60;99.90
55064;DHT22;40963;52.168;21.296;2022-11-18T15:31:08;-0.70;99.90
55064;DHT22;40963;52.168;21.296;2022-11-18T15:33:33;-0.70;99.90
55064;DHT22;40963;52.168;21.296;2022-11-18T15:35:59;-0.70;99.90
55064;DHT22;40963;52.168;21.296;2022-11-18T15:38:24;-0.70;99.90
55064;DHT22;40963;52.168;21.296;2022-11-18T15:40:50;-0.80;99.90
55064;DHT22;40963;52.168;21.296;2022-11-18T15:43:16;-0.80;99.90
55064;DHT22;40963;52.168;21.296;2022-11-18T15:45:42;-0.80;99.90
55064;DHT22;40963;52.168;21.296;2022-11-18T15:48:08;-0.90;99.90
55064;DHT22;40963;52.168;21.296;2022-11-18T15:50:34;-0.90;99.90
55064;DHT22;40963;52.168;21.296;2022-11-18T15:52:59;-0.90;99.90
55064;DHT22;40963;52.168;21.296;2022-11-18T15:55:25;-0.90;99.90
55064;DHT22;40963;52.168;21.296;2022-11-18T15:57:50;-0.90;99.90
55064;DHT22;40963;52.168;21.296;2022-11-18T16:00:16;-0.90;99.90
55064;DHT22;40963;52.168;21.296;2022-11-18T16:02:42;-1.00;99.90
55064;DHT22;40963;52.168;21.296;2022-11-18T16:05:08;-1.00;99.90
55064;DHT22;40963;52.168;21.296;2022-11-18T16:07:34;-1.00;99.90
55064;DHT22;40963;52.168;21.296;2022-11-18T16:09:59;-1.10;99.90
55064;DHT22;40963;52.168;21.296;2022-11-18T16:12:44;-1.10;99.90
55064;DHT22;40963;52.168;21.296;2022-11-18T16:15:14;-1.20;99.90
55064;DHT22;40963;52.168;21.296;2022-11-18T16:18:06;-1.20;99.90
55064;DHT22;40963;52.168;21.296;2022-11-18T16:20:31;-1.20;99.90
55064;DHT22;40963;52.168;21.296;2022-11-18T16:22:57;-1.30;99.90
55064;DHT22;40963;52.168;21.296;2022-11-18T16:25:23;-1.30;99.90
55064;DHT22;40963;52.168;21.296;2022-11-18T16:27:49;-1.30;99.90
55064;DHT22;40963;52.168;21.296;2022-11-18T16:30:15;-1.20;99.90
55064;DHT22;40963;52.168;21.296;2022-11-18T16:32:59;-1.30;99.90
55064;DHT22;40963;52.168;21.296;2022-11-18T16:35:25;-1.20;99.90
55064;DHT22;40963;52.168;21.296;2022-11-18T16:37:52;-1.30;99.90
55064;DHT22;40963;52.168;21.296;2022-11-18T16:40:18;-1.30;99.90
55064;DHT22;40963;52.168;21.296;2022-11-18T16:42:49;-1.30;99.90
55064;DHT22;40963;52.168;21.296;2022-11-18T16:45:16;-1.30;99.90
55064;DHT22;40963;52.168;21.296;2022-11-18T16:47:41;-1.30;99.90
55064;DHT22;40963;52.168;21.296;2022-11-18T16:50:08;-1.30;99.90
55064;DHT22;40963;52.168;21.296;2022-11-18T16:52:34;-1.30;99.90
55064;DHT22;40963;52.168;21.296;2022-11-18T16:54:59;-1.30;99.90
55064;DHT22;40963;52.168;21.296;2022-11-18T16:57:25;-1.30;99.90
55064;DHT22;40963;52.168;21.296;2022-11-18T16:59:50;-1.30;99.90
55064;DHT22;40963;52.168;21.296;2022-11-18T17:02:16;-1.30;99.90
55064;DHT22;40963;52.168;21.296;2022-11-18T17:04:44;-1.30;99.90
55064;DHT22;40963;52.168;21.296;2022-11-18T17:07:10;-1.30;99.90